Meloi — 3FOD — position and weather

sailwx.info

Track history (hours):
 
Tides and Currents Weather Stations Pressure Air Temp Water Temp Dewpoint Dewpoint Depression Visibility Wind Speed Wind Dir Waves Ship Positions

Meloi

Last reported at 2016-Sep-16 09:32 UTC. Time now 2016-Oct-01 10:28 UTC.
Position N 09°54' W 079°15'.
Warning: this ship's position is 15 days out of date.

Length 180 m; draft 8.7 m.

Type: Cargo ship. MMSI: 351132000.

Date/timePositionNaut miles runAvg speedWind from/ knotsBaromVisibWave heightAir tempDewpointWater temp
2016-Sep-16 09:32N 09°54' W 079°15'2713.6
2016-Sep-16 07:33N 09°42' W 079°40'30 7.6
2016-Sep-16 03:33N 09°16' W 079°55'6 6.2
2016-Sep-16 02:33N 09°11' W 079°52'16 7.9
2016-Sep-16 00:31N 09°02' W 079°38'0 0.0
2016-Sep-15 22:28N 09°02' W 079°38'0 0.0
2016-Sep-15 21:13N 09°02' W 079°38'0 0.0
2016-Sep-15 20:28N 09°02' W 079°38'9 1.1
2016-Sep-15 12:32N 08°55' W 079°33'5 3.7
2016-Sep-15 11:12N 08°50' W 079°31'0 0.0
2016-Sep-15 03:25N 08°50' W 079°31'0 0.0
2016-Sep-15 01:28N 08°50' W 079°31'0 0.0
2016-Sep-14 22:16N 08°50' W 079°31'0 0.0
2016-Sep-14 17:19N 08°50' W 079°31'0 0.0
2016-Sep-14 13:10N 08°50' W 079°31'0 0.0
2016-Sep-14 12:28N 08°50' W 079°31'0 0.0
2016-Sep-14 09:31N 08°50' W 079°31'0 0.0
2016-Sep-14 08:13N 08°50' W 079°31'0 0.0
2016-Sep-14 07:22N 08°50' W 079°31'0 0.0
2016-Sep-14 06:06N 08°50' W 079°31'0 0.0
2016-Sep-14 03:12N 08°50' W 079°31'0 0.0
2016-Sep-13 22:22N 08°50' W 079°31'0 0.0
2016-Sep-13 18:31N 08°50' W 079°31'0 0.0
2016-Sep-13 16:28N 08°50' W 079°31'  
Track history (hours):
 
Tides and Currents Weather Stations Pressure Air Temp Water Temp Dewpoint Dewpoint Depression Visibility Wind Speed Wind Dir Waves Ship Positions

Meloi

Last reported at 2016-Sep-16 09:32 UTC. Time now 2016-Oct-01 10:28 UTC.
Position N 09°54' W 079°15'.
Warning: this ship's position is 15 days out of date.

Length 180 m; draft 8.7 m.

Type: Cargo ship. MMSI: 351132000.

Date/timePositionNaut miles runAvg speedWind from/ knotsBaromVisibWave heightAir tempDewpointWater temp
2016-Sep-16 09:32N 09°54' W 079°15'2713.6
2016-Sep-16 07:33N 09°42' W 079°40'30 7.6
2016-Sep-16 03:33N 09°16' W 079°55'6 6.2
2016-Sep-16 02:33N 09°11' W 079°52'16 7.9
2016-Sep-16 00:31N 09°02' W 079°38'0 0.0
2016-Sep-15 22:28N 09°02' W 079°38'0 0.0
2016-Sep-15 21:13N 09°02' W 079°38'0 0.0
2016-Sep-15 20:28N 09°02' W 079°38'9 1.1
2016-Sep-15 12:32N 08°55' W 079°33'5 3.7
2016-Sep-15 11:12N 08°50' W 079°31'0 0.0
2016-Sep-15 03:25N 08°50' W 079°31'0 0.0
2016-Sep-15 01:28N 08°50' W 079°31'0 0.0
2016-Sep-14 22:16N 08°50' W 079°31'0 0.0
2016-Sep-14 17:19N 08°50' W 079°31'0 0.0
2016-Sep-14 13:10N 08°50' W 079°31'0 0.0
2016-Sep-14 12:28N 08°50' W 079°31'0 0.0
2016-Sep-14 09:31N 08°50' W 079°31'0 0.0
2016-Sep-14 08:13N 08°50' W 079°31'0 0.0
2016-Sep-14 07:22N 08°50' W 079°31'0 0.0
2016-Sep-14 06:06N 08°50' W 079°31'0 0.0
2016-Sep-14 03:12N 08°50' W 079°31'0 0.0
2016-Sep-13 22:22N 08°50' W 079°31'0 0.0
2016-Sep-13 18:31N 08°50' W 079°31'0 0.0
2016-Sep-13 16:28N 08°50' W 079°31'  

Dump ship's entire track history